Time;durP1;ratioP1;P1;durP2;ratioP2;P2;SDS_P1;SDS_P2;PMS_P1;PMS_P2;Temp;Humidity;BMP_temperature;BMP_pressure;BME280_temperature;BME280_humidity;BME280_pressure;Samples;Min_cycle;Max_cycle;Signal;HPM_P1;HPM_P2
2023/03/30 03:56:13;;;;;;;2.13;1.30;;;9.20;99.90;;;;;;5393049;23;20245;-66
2023/03/30 03:58:40;;;;;;;2.15;1.00;;;9.20;99.90;;;;;;4974745;28;20287;-65
2023/03/30 04:01:07;;;;;;;1.10;1.00;;;9.10;99.90;;;;;;4974780;28;20539;-66
2023/03/30 04:03:33;;;;;;;1.35;1.35;;;9.10;99.90;;;;;;4975094;28;20247;-66
2023/03/30 04:06:01;;;;;;;1.52;1.00;;;9.00;99.90;;;;;;4974964;28;20227;-66
2023/03/30 04:08:28;;;;;;;2.42;1.15;;;9.10;99.90;;;;;;4975524;28;20203;-67
2023/03/30 04:10:55;;;;;;;1.20;1.10;;;9.00;99.90;;;;;;4974564;28;20622;-67
2023/03/30 04:13:23;;;;;;;1.88;0.90;;;8.90;99.90;;;;;;4974861;28;20229;-67
2023/03/30 04:15:50;;;;;;;1.35;0.90;;;8.90;99.90;;;;;;4976256;28;20223;-65
2023/03/30 04:18:16;;;;;;;1.77;1.20;;;8.90;99.90;;;;;;4974913;28;20306;-66
2023/03/30 04:20:43;;;;;;;3.63;1.27;;;8.90;99.90;;;;;;4974527;28;20203;-66
2023/03/30 04:23:20;;;;;;;2.53;1.30;;;8.90;99.90;;;;;;4975285;28;20290;-66
2023/03/30 04:25:47;;;;;;;4.35;1.55;;;8.90;99.90;;;;;;4976165;28;20249;-67
2023/03/30 04:28:14;;;;;;;1.75;1.52;;;8.90;99.90;;;;;;4975293;28;20202;-66
2023/03/30 04:30:44;;;;;;;1.85;1.40;;;8.90;99.90;;;;;;4975091;28;20294;-66
2023/03/30 04:33:11;;;;;;;2.70;1.20;;;8.90;99.90;;;;;;4974728;28;20204;-66
2023/03/30 04:35:37;;;;;;;3.63;1.10;;;9.00;99.90;;;;;;4974233;28;20706;-66
2023/03/30 04:38:05;;;;;;;1.40;1.30;;;9.00;99.90;;;;;;4974750;28;20207;-66
2023/03/30 04:40:32;;;;;;;2.38;1.35;;;9.00;99.90;;;;;;4974321;28;20243;-66
2023/03/30 04:43:01;;;;;;;1.42;1.33;;;8.90;99.90;;;;;;4974756;28;20207;-66
2023/03/30 04:45:28;;;;;;;3.47;1.33;;;8.90;99.90;;;;;;4975080;28;20261;-65
2023/03/30 04:47:56;;;;;;;1.20;1.10;;;8.80;99.90;;;;;;4974634;28;20235;-66
2023/03/30 04:50:24;;;;;;;2.38;1.30;;;8.70;99.90;;;;;;4974632;28;20207;-65
2023/03/30 04:52:50;;;;;;;1.42;1.30;;;8.70;99.90;;;;;;4974571;28;20203;-65
2023/03/30 04:55:17;;;;;;;2.10;1.17;;;8.60;99.90;;;;;;4974400;28;20231;-65
2023/03/30 04:57:44;;;;;;;1.75;1.65;;;8.50;99.90;;;;;;4974255;28;20215;-63
2023/03/30 05:00:12;;;;;;;2.20;1.77;;;8.50;99.90;;;;;;4974138;28;20561;-64
2023/03/30 05:02:39;;;;;;;3.05;1.95;;;8.40;99.90;;;;;;4974158;28;20203;-63
2023/03/30 05:05:08;;;;;;;6.93;2.00;;;8.40;99.90;;;;;;4974058;28;20630;-64
2023/03/30 05:07:35;;;;;;;3.30;2.13;;;8.40;99.90;;;;;;4974416;28;20235;-64
2023/03/30 05:10:02;;;;;;;5.47;2.00;;;8.40;99.90;;;;;;4974425;28;20207;-64
2023/03/30 05:12:28;;;;;;;4.53;2.03;;;8.40;99.90;;;;;;4974103;28;20686;-63
2023/03/30 05:14:55;;;;;;;2.92;1.52;;;8.40;99.90;;;;;;4974249;28;20227;-64
2023/03/30 05:17:22;;;;;;;3.97;1.55;;;8.40;99.90;;;;;;4974333;28;20207;-64
2023/03/30 05:19:48;;;;;;;3.33;1.50;;;8.40;99.90;;;;;;4974375;28;20199;-64
2023/03/30 10:07:42;;;;;;;2.63;1.80;;;10.50;99.90;;;;;;5233676;23;20243;-66
2023/03/30 10:10:26;;;;;;;2.58;2.08;;;10.50;99.90;;;;;;4976751;28;20211;-67
2023/03/30 10:12:55;;;;;;;3.30;2.00;;;10.50;99.90;;;;;;4976999;28;20199;-67
2023/03/30 10:15:27;;;;;;;2.60;1.50;;;10.50;99.90;;;;;;4976900;28;20227;-67
2023/03/30 10:17:55;;;;;;;1.75;1.67;;;10.60;99.90;;;;;;4976609;28;20230;-67
2023/03/30 10:20:26;;;;;;;3.03;2.10;;;10.70;99.90;;;;;;4977156;28;20211;-65
2023/03/30 10:22:55;;;;;;;2.40;1.60;;;10.90;99.90;;;;;;4977075;28;20222;-64
2023/03/30 10:25:26;;;;;;;2.70;2.00;;;11.00;99.90;;;;;;4976908;28;20254;-64
2023/03/30 10:27:55;;;;;;;2.75;2.22;;;11.10;99.90;;;;;;4976847;28;20223;-64
2023/03/30 10:30:25;;;;;;;3.75;2.17;;;11.10;99.90;;;;;;4976644;28;20199;-64
2023/03/30 10:32:55;;;;;;;1.90;1.60;;;11.10;99.90;;;;;;4976744;28;20191;-64
2023/03/30 10:35:24;;;;;;;1.85;1.75;;;11.20;99.90;;;;;;4976601;28;20220;-64
2023/03/30 10:37:52;;;;;;;3.55;2.47;;;11.20;99.90;;;;;;4976506;28;20314;-64
2023/03/30 10:40:23;;;;;;;4.45;2.97;;;11.10;99.90;;;;;;4976540;28;20208;-64
2023/03/30 10:42:54;;;;;;;2.90;2.20;;;11.20;99.90;;;;;;4976389;28;20706;-64
2023/03/30 10:45:27;;;;;;;2.38;2.10;;;11.10;99.90;;;;;;4976553;28;20191;-65
2023/03/30 10:48:05;;;;;;;2.10;2.00;;;11.00;99.90;;;;;;4976476;28;20320;-64
2023/03/30 10:50:40;;;;;;;2.28;2.08;;;10.90;99.90;;;;;;4976394;28;20243;-64
2023/03/30 10:53:20;;;;;;;2.33;1.70;;;10.90;99.90;;;;;;4976462;28;20199;-64
2023/03/30 10:55:56;;;;;;;3.80;2.30;;;10.80;99.90;;;;;;4976080;28;20203;-64
2023/03/30 10:58:34;;;;;;;8.38;2.38;;;10.80;99.90;;;;;;4975957;28;20643;-64
2023/03/30 11:01:11;;;;;;;4.60;2.85;;;10.80;99.90;;;;;;4975956;28;20702;-64
2023/03/30 11:03:39;;;;;;;7.53;3.17;;;10.90;99.90;;;;;;4976265;28;20187;-64
2023/03/30 11:06:12;;;;;;;3.53;3.33;;;10.90;99.90;;;;;;4976029;28;20207;-64
2023/03/30 11:08:43;;;;;;;3.95;3.10;;;10.90;99.90;;;;;;4975781;28;20191;-63
2023/03/30 11:11:17;;;;;;;3.45;2.90;;;11.10;99.90;;;;;;4976274;28;20192;-64
2023/03/30 11:13:48;;;;;;;5.20;2.90;;;11.10;99.90;;;;;;4975838;28;20194;-64
2023/03/30 11:16:20;;;;;;;5.07;3.08;;;11.20;99.90;;;;;;4976415;28;20290;-63
2023/03/30 11:18:53;;;;;;;5.30;2.97;;;11.20;99.90;;;;;;4976103;28;20203;-63
2023/03/30 11:21:24;;;;;;;11.52;3.42;;;11.30;99.90;;;;;;4976080;28;20194;-63
2023/03/30 11:23:54;;;;;;;4.63;2.95;;;11.20;99.90;;;;;;4975832;28;20188;-64
2023/03/30 11:26:29;;;;;;;10.00;3.92;;;11.10;99.90;;;;;;4975811;28;20270;-64
2023/03/30 11:29:13;;;;;;;6.70;3.30;;;10.90;99.90;;;;;;4975414;28;20663;-63
2023/03/30 11:31:48;;;;;;;4.50;2.85;;;10.90;99.90;;;;;;4974541;28;20740;-64
2023/03/30 11:34:24;;;;;;;7.10;3.30;;;10.90;99.90;;;;;;4975815;28;20208;-63
2023/03/30 11:37:00;;;;;;;6.97;3.00;;;10.80;99.90;;;;;;4975868;28;20311;-64
2023/03/30 11:39:30;;;;;;;4.72;2.80;;;10.90;99.90;;;;;;4975245;28;20191;-64
2023/03/30 11:42:06;;;;;;;3.00;2.40;;;10.90;99.90;;;;;;4975248;28;20647;-64
2023/03/30 11:44:33;;;;;;;6.72;3.28;;;10.90;99.90;;;;;;4975365;28;20179;-64
2023/03/30 11:47:15;;;;;;;4.63;3.50;;;10.90;99.90;;;;;;4975332;28;20231;-65
2023/03/30 11:49:55;;;;;;;4.28;3.33;;;10.90;99.90;;;;;;4975201;28;20187;-64
2023/03/30 11:52:32;;;;;;;3.10;2.80;;;11.00;99.90;;;;;;4975204;28;20595;-64
2023/03/30 11:55:19;;;;;;;6.53;2.90;;;11.10;99.90;;;;;;4975065;28;20211;-64
2023/03/30 11:57:57;;;;;;;5.47;4.00;;;11.30;99.90;;;;;;4974662;28;20711;-64
2023/03/30 12:00:39;;;;;;;12.10;3.95;;;11.40;99.90;;;;;;4974875;28;20646;-64
2023/03/30 12:03:15;;;;;;;8.52;3.83;;;11.40;99.90;;;;;;4974685;28;20643;-64
2023/03/30 12:05:45;;;;;;;6.82;3.15;;;11.20;99.90;;;;;;4975084;28;20202;-64
2023/03/30 12:08:29;;;;;;;6.95;3.03;;;11.10;99.90;;;;;;4974614;28;20576;-66
2023/03/30 12:11:01;;;;;;;5.45;3.08;;;10.90;99.90;;;;;;4975102;28;20187;-65
2023/03/30 12:13:30;;;;;;;11.50;3.53;;;10.80;99.90;;;;;;4975035;28;20187;-65
2023/03/30 12:16:02;;;;;;;7.75;3.05;;;10.60;99.90;;;;;;4974817;28;20230;-65
2023/03/30 12:18:36;;;;;;;6.20;2.97;;;10.50;99.90;;;;;;4974941;28;20207;-65
2023/03/30 12:21:20;;;;;;;5.30;2.92;;;10.60;99.90;;;;;;4975107;28;20601;-65
2023/03/30 12:23:53;;;;;;;6.70;3.00;;;10.80;99.90;;;;;;4975900;28;20196;-65
2023/03/30 12:26:26;;;;;;;2.55;2.40;;;11.00;99.90;;;;;;4974819;28;20246;-65
2023/03/30 12:28:59;;;;;;;11.55;3.20;;;11.30;99.90;;;;;;4974813;28;20226;-65
2023/03/30 12:32:02;;;;;;;3.88;2.88;;;11.40;99.90;;;;;;4975455;28;20203;-65
2023/03/30 12:34:32;;;;;;;5.80;3.00;;;11.50;99.90;;;;;;4974715;28;20211;-65
2023/03/30 12:37:03;;;;;;;8.25;2.63;;;11.50;99.90;;;;;;4974695;28;20634;-65
2023/03/30 12:39:32;;;;;;;3.08;2.53;;;11.60;99.90;;;;;;4974780;28;20221;-65
2023/03/30 12:42:05;;;;;;;3.13;2.55;;;11.50;99.90;;;;;;4976152;28;20203;-65
2023/03/30 12:44:46;;;;;;;4.50;2.63;;;11.60;99.90;;;;;;4978695;28;20606;-65
2023/03/30 12:47:42;;;;;;;9.93;2.75;;;11.60;99.90;;;;;;4978587;28;20223;-66
2023/03/30 12:50:22;;;;;;;5.72;2.63;;;11.50;99.90;;;;;;4977148;28;20215;-64
2023/03/30 12:53:02;;;;;;;4.55;2.65;;;11.30;99.90;;;;;;4978696;28;20196;-64
2023/03/30 12:55:39;;;;;;;3.15;2.75;;;11.20;99.90;;;;;;4978630;28;20246;-64
2023/03/30 12:58:25;;;;;;;4.03;2.45;;;11.20;99.90;;;;;;4978478;28;20223;-63
2023/03/30 13:01:07;;;;;;;5.28;2.97;;;11.40;99.90;;;;;;4978598;28;20187;-64
2023/03/30 13:03:38;;;;;;;5.30;3.10;;;11.40;99.90;;;;;;4978504;28;20194;-64
2023/03/30 13:06:13;;;;;;;7.90;3.25;;;11.40;99.90;;;;;;4978230;28;20199;-64
2023/03/30 13:08:41;;;;;;;2.80;2.20;;;11.40;99.90;;;;;;4978047;28;20218;-64
2023/03/30 13:11:12;;;;;;;2.97;2.55;;;11.40;99.90;;;;;;4978110;28;20192;-64
2023/03/30 13:13:52;;;;;;;6.15;2.90;;;11.50;99.90;;;;;;4978054;28;20273;-64
2023/03/30 13:17:05;;;;;;;5.78;2.38;;;11.50;99.90;;;;;;4977886;28;20230;-64
2023/03/30 13:19:47;;;;;;;6.55;2.90;;;11.40;99.90;;;;;;4977962;28;20184;-64
2023/03/30 13:22:28;;;;;;;2.90;2.25;;;11.40;99.90;;;;;;4977689;28;20698;-64
2023/03/30 13:24:58;;;;;;;5.07;2.03;;;11.40;99.90;;;;;;4977855;28;20219;-65
2023/03/30 13:27:29;;;;;;;3.97;2.20;;;11.40;99.90;;;;;;4978052;28;20675;-65
2023/03/30 13:29:58;;;;;;;5.53;2.35;;;11.30;99.90;;;;;;4977857;28;20195;-65
2023/03/30 13:32:40;;;;;;;2.85;2.05;;;11.30;99.90;;;;;;4977402;28;20566;-65
2023/03/30 13:35:27;;;;;;;6.80;2.20;;;11.30;99.90;;;;;;4977495;28;20207;-65
2023/03/30 13:38:07;;;;;;;2.78;2.58;;;11.30;99.90;;;;;;4961416;28;20230;-65
2023/03/30 13:40:41;;;;;;;2.28;2.13;;;11.30;99.90;;;;;;4977719;28;20194;-65
2023/03/30 13:43:19;;;;;;;2.63;2.35;;;11.30;99.90;;;;;;4977587;28;20184;-65
2023/03/30 13:45:54;;;;;;;6.28;2.75;;;11.20;99.90;;;;;;4977467;28;20191;-65
2023/03/30 13:48:38;;;;;;;2.35;2.05;;;11.20;99.90;;;;;;4978666;28;20250;-65
2023/03/30 13:51:06;;;;;;;3.50;1.98;;;11.30;99.90;;;;;;4977943;28;20210;-65
2023/03/30 13:53:38;;;;;;;3.97;2.10;;;11.30;99.90;;;;;;4976640;28;20210;-65
2023/03/30 13:56:07;;;;;;;7.60;2.20;;;11.30;99.90;;;;;;4977147;28;20212;-65
2023/03/30 13:58:35;;;;;;;1.75;1.65;;;11.30;99.90;;;;;;4977361;28;20195;-65
2023/03/30 14:01:06;;;;;;;3.20;1.60;;;11.20;99.90;;;;;;4977312;28;20211;-65
2023/03/30 14:03:38;;;;;;;4.15;1.60;;;11.20;99.90;;;;;;4977021;28;20558;-65
2023/03/30 14:06:07;;;;;;;4.10;2.00;;;11.10;99.90;;;;;;4976856;28;20635;-65
2023/03/30 14:08:36;;;;;;;1.83;1.48;;;11.00;99.90;;;;;;4977263;28;20204;-66
2023/03/30 14:11:08;;;;;;;2.30;1.15;;;11.00;99.90;;;;;;4976772;28;20552;-66
2023/03/30 14:13:37;;;;;;;2.35;1.65;;;11.00;99.90;;;;;;4976853;28;20636;-65
2023/03/30 14:16:05;;;;;;;4.38;1.67;;;11.10;99.90;;;;;;4976849;28;20219;-66
2023/03/30 14:18:32;;;;;;;2.92;1.42;;;11.20;99.90;;;;;;4977312;28;20204;-65
2023/03/30 14:21:02;;;;;;;3.75;1.52;;;11.20;99.90;;;;;;4977436;28;20203;-65
2023/03/30 14:23:34;;;;;;;2.88;1.42;;;11.30;99.90;;;;;;4976903;28;20203;-65
2023/03/30 14:26:03;;;;;;;1.65;1.40;;;11.40;99.90;;;;;;4976906;28;20188;-65
2023/03/30 14:28:34;;;;;;;2.67;1.50;;;11.60;99.90;;;;;;4977007;28;20191;-66
2023/03/30 14:31:03;;;;;;;5.47;1.40;;;11.80;99.90;;;;;;4976840;28;20712;-66
2023/03/30 14:33:31;;;;;;;1.00;1.00;;;12.10;99.90;;;;;;4976770;28;20207;-65
2023/03/30 14:36:01;;;;;;;2.05;1.48;;;12.30;99.90;;;;;;4976393;28;20230;-66
2023/03/30 14:38:33;;;;;;;3.25;1.48;;;12.60;99.90;;;;;;4976879;28;20270;-65
2023/03/30 14:41:00;;;;;;;4.03;1.40;;;12.90;99.90;;;;;;4976852;28;20210;-65
2023/03/30 14:43:30;;;;;;;4.45;1.48;;;13.20;99.90;;;;;;4976657;28;20203;-65
2023/03/30 14:45:59;;;;;;;4.25;1.40;;;13.50;99.90;;;;;;4976422;28;20195;-66
2023/03/30 14:48:32;;;;;;;2.60;1.40;;;13.70;99.90;;;;;;4976180;28;20207;-65
2023/03/30 14:51:01;;;;;;;3.60;2.08;;;13.80;99.90;;;;;;4976161;28;20643;-65
2023/03/30 14:53:29;;;;;;;2.42;1.13;;;13.90;99.90;;;;;;4976977;28;20203;-66
2023/03/30 14:55:59;;;;;;;2.08;1.48;;;14.10;99.90;;;;;;4976808;28;20219;-66
2023/03/30 14:58:30;;;;;;;2.85;1.40;;;14.30;99.90;;;;;;4977744;28;20207;-66
2023/03/30 15:00:59;;;;;;;4.53;1.50;;;14.40;99.90;;;;;;4977195;28;20690;-66
2023/03/30 15:03:29;;;;;;;3.88;1.52;;;14.50;96.30;;;;;;4976898;28;20582;-66
2023/03/30 15:06:01;;;;;;;2.22;1.33;;;14.50;99.90;;;;;;4975778;28;20642;-66
2023/03/30 15:08:32;;;;;;;3.35;1.55;;;14.30;96.40;;;;;;4975927;28;20195;-65
2023/03/30 15:11:03;;;;;;;1.58;1.33;;;14.10;99.90;;;;;;4975767;28;20632;-65
2023/03/30 15:13:35;;;;;;;2.92;1.27;;;14.00;99.90;;;;;;4976110;28;20184;-65
2023/03/30 15:16:03;;;;;;;2.47;1.48;;;14.10;99.90;;;;;;4975894;28;20215;-66
2023/03/30 15:18:31;;;;;;;3.22;1.50;;;14.00;99.90;;;;;;4976122;28;20211;-65
2023/03/30 15:20:59;;;;;;;2.88;1.73;;;13.90;99.90;;;;;;4976070;28;20611;-65
2023/03/30 15:23:33;;;;;;;2.20;1.48;;;13.80;99.90;;;;;;4975819;28;20250;-66
2023/03/30 15:26:03;;;;;;;6.38;2.03;;;13.80;99.90;;;;;;4975743;28;20184;-65
2023/03/30 15:28:33;;;;;;;3.88;1.70;;;13.70;99.90;;;;;;4975638;28;20195;-65
2023/03/30 15:31:00;;;;;;;4.60;1.55;;;13.70;99.90;;;;;;4975550;28;20183;-65
2023/03/30 15:33:34;;;;;;;2.67;1.58;;;13.40;99.90;;;;;;4975362;28;20204;-65
2023/03/30 15:36:06;;;;;;;3.53;1.27;;;13.10;99.90;;;;;;4975178;28;20211;-65
2023/03/30 15:38:42;;;;;;;1.58;1.42;;;12.80;99.90;;;;;;4975467;28;20191;-65
2023/03/30 15:41:13;;;;;;;3.35;1.45;;;12.60;99.90;;;;;;4975521;28;20187;-65
2023/03/30 15:43:53;;;;;;;2.22;1.10;;;12.40;99.90;;;;;;4975681;28;20279;-65
2023/03/30 15:46:20;;;;;;;1.55;1.00;;;12.20;99.90;;;;;;4975090;28;20656;-66
2023/03/30 15:48:49;;;;;;;2.60;1.25;;;12.10;99.90;;;;;;4975192;28;20685;-65
2023/03/30 15:51:21;;;;;;;3.45;1.20;;;11.90;99.90;;;;;;4975305;28;20207;-65
2023/03/30 15:53:52;;;;;;;5.30;1.80;;;11.90;99.90;;;;;;4975362;28;20199;-65
2023/03/30 15:56:22;;;;;;;1.13;1.00;;;11.80;99.90;;;;;;4975187;28;20571;-66
2023/03/30 15:58:50;;;;;;;2.55;1.30;;;11.80;99.90;;;;;;4975489;28;20199;-65
2023/03/30 16:01:17;;;;;;;2.00;1.33;;;11.80;99.90;;;;;;4975187;28;20207;-65
2023/03/30 16:03:53;;;;;;;1.17;0.80;;;11.80;99.90;;;;;;4975289;28;20207;-65
2023/03/30 16:06:22;;;;;;;3.63;1.00;;;11.80;99.90;;;;;;4975311;28;20230;-65
2023/03/30 16:08:50;;;;;;;2.45;1.15;;;11.80;99.90;;;;;;4974892;28;20226;-65
2023/03/30 16:11:17;;;;;;;2.58;1.10;;;11.90;99.90;;;;;;4975220;28;20558;-65
2023/03/30 16:13:46;;;;;;;2.67;1.17;;;12.00;99.90;;;;;;4975045;28;20199;-65
2023/03/30 16:16:13;;;;;;;1.77;1.02;;;12.00;99.90;;;;;;4974550;28;20315;-66
2023/03/30 16:18:40;;;;;;;2.28;1.00;;;11.90;99.90;;;;;;4975068;28;20207;-66
2023/03/30 16:21:09;;;;;;;3.30;1.35;;;12.00;99.90;;;;;;4997183;23;20222;-66
2023/03/30 16:23:36;;;;;;;1.30;1.00;;;12.00;99.90;;;;;;4974868;28;20243;-65
2023/03/30 16:26:06;;;;;;;1.88;0.90;;;12.10;99.90;;;;;;4974517;28;20195;-65
2023/03/30 16:28:33;;;;;;;3.20;1.25;;;12.20;99.90;;;;;;4974339;28;20187;-65
2023/03/30 16:31:03;;;;;;;1.15;1.08;;;12.20;99.90;;;;;;4974685;28;20231;-65
2023/03/30 16:33:29;;;;;;;2.28;1.15;;;12.20;99.90;;;;;;4974655;28;20211;-65
2023/03/30 16:35:56;;;;;;;1.85;1.13;;;12.20;99.90;;;;;;4975280;28;20231;-65
2023/03/30 16:38:23;;;;;;;1.52;1.20;;;12.20;99.90;;;;;;4974354;28;20206;-67
2023/03/30 16:40:52;;;;;;;3.53;1.30;;;12.20;99.90;;;;;;4974276;28;20670;-65
2023/03/30 16:43:20;;;;;;;3.40;1.10;;;12.30;99.90;;;;;;4974244;28;20203;-65
2023/03/30 16:45:47;;;;;;;1.38;0.90;;;12.30;99.90;;;;;;4974508;28;20199;-65
2023/03/30 16:48:14;;;;;;;2.10;0.80;;;12.30;99.90;;;;;;4974551;28;20274;-65
2023/03/30 16:50:43;;;;;;;1.10;0.90;;;12.20;99.90;;;;;;4974460;28;20203;-65
2023/03/30 16:53:10;;;;;;;3.20;1.05;;;12.20;99.90;;;;;;4974528;28;20200;-65
2023/03/30 16:55:38;;;;;;;1.42;1.13;;;12.20;99.90;;;;;;4974353;28;20210;-65
2023/03/30 16:58:07;;;;;;;1.85;1.00;;;12.10;99.90;;;;;;4974552;28;20207;-65
2023/03/30 17:00:39;;;;;;;0.80;0.80;;;12.10;99.90;;;;;;4974131;28;20718;-64
2023/03/30 17:03:06;;;;;;;1.73;1.27;;;12.00;99.90;;;;;;4974163;28;20639;-64
2023/03/30 17:05:32;;;;;;;3.45;1.52;;;12.00;99.90;;;;;;4974132;28;20544;-64
2023/03/30 17:08:04;;;;;;;2.53;1.55;;;11.80;99.90;;;;;;4974415;28;20203;-64
2023/03/30 17:10:33;;;;;;;2.78;1.90;;;11.70;99.90;;;;;;4974691;28;20242;-64
2023/03/30 17:13:00;;;;;;;3.05;1.48;;;11.50;99.90;;;;;;4974695;28;20211;-64
2023/03/30 17:15:26;;;;;;;4.45;1.70;;;11.30;99.90;;;;;;4974734;28;20203;-66
2023/03/30 17:17:55;;;;;;;1.75;1.38;;;11.20;99.90;;;;;;4974386;28;20227;-64
2023/03/30 17:20:28;;;;;;;2.25;1.52;;;11.10;99.90;;;;;;4975019;28;20234;-64
2023/03/30 17:22:55;;;;;;;1.25;1.25;;;11.10;99.90;;;;;;4974326;28;20235;-65
2023/03/30 17:25:25;;;;;;;1.58;1.27;;;10.90;99.90;;;;;;4974255;28;20675;-64
2023/03/30 17:27:52;;;;;;;3.45;1.92;;;10.80;99.90;;;;;;4974521;28;20183;-64
2023/03/30 17:30:23;;;;;;;2.10;1.30;;;10.60;99.90;;;;;;4977566;28;20215;-64
2023/03/30 17:32:50;;;;;;;1.30;1.20;;;10.50;99.90;;;;;;4977645;28;20710;-64
2023/03/30 17:35:18;;;;;;;1.27;1.13;;;10.40;99.90;;;;;;4978163;28;20207;-65
2023/03/30 17:37:45;;;;;;;1.73;1.15;;;10.30;99.90;;;;;;4978025;28;20224;-64
2023/03/30 17:40:18;;;;;;;0.95;0.93;;;10.30;99.90;;;;;;4978298;28;20286;-64
2023/03/30 17:42:45;;;;;;;1.02;1.02;;;10.20;99.90;;;;;;4979129;28;20219;-64
2023/03/30 17:45:13;;;;;;;2.60;1.92;;;10.10;99.90;;;;;;4977696;28;20663;-64
2023/03/30 17:47:40;;;;;;;2.28;1.40;;;10.00;99.90;;;;;;4977823;28;20231;-64
2023/03/30 17:50:23;;;;;;;2.67;1.50;;;9.90;99.90;;;;;;4977811;28;20214;-64
2023/03/30 17:52:50;;;;;;;1.60;1.50;;;9.70;99.90;;;;;;4977522;28;20223;-64
2023/03/30 17:55:18;;;;;;;1.30;1.30;;;9.60;99.90;;;;;;4977903;28;20547;-64
2023/03/30 17:57:45;;;;;;;1.17;1.15;;;9.40;99.90;;;;;;4977740;28;20322;-66
2023/03/30 18:00:22;;;;;;;1.30;1.30;;;9.30;99.90;;;;;;4977587;28;20203;-65
2023/03/30 18:02:49;;;;;;;1.02;1.00;;;9.10;99.90;;;;;;4977852;28;20242;-65
2023/03/30 18:05:17;;;;;;;1.10;1.10;;;9.00;99.90;;;;;;4977642;28;20235;-65
2023/03/30 18:07:45;;;;;;;1.88;1.13;;;8.80;99.90;;;;;;4977555;28;20207;-65
2023/03/30 18:10:24;;;;;;;1.33;1.20;;;8.70;99.90;;;;;;4977671;28;20207;-65
2023/03/30 18:12:51;;;;;;;1.30;1.30;;;8.60;99.90;;;;;;4977275;28;20726;-65
2023/03/30 18:15:20;;;;;;;1.35;1.20;;;8.50;99.90;;;;;;4977567;28;20203;-68
2023/03/30 18:17:47;;;;;;;1.42;1.20;;;8.40;99.90;;;;;;4977315;28;20219;-67
2023/03/30 18:20:18;;;;;;;2.10;1.30;;;8.30;99.90;;;;;;4977464;28;20207;-68
2023/03/30 18:22:46;;;;;;;1.30;1.30;;;8.30;99.90;;;;;;4976945;28;20236;-68
2023/03/30 18:25:13;;;;;;;7.40;2.42;;;8.30;99.90;;;;;;4977370;28;20199;-67
2023/03/30 18:27:41;;;;;;;2.60;2.20;;;8.30;99.90;;;;;;4977216;28;20203;-67
2023/03/30 18:30:18;;;;;;;7.20;2.25;;;8.40;99.90;;;;;;4977006;28;20667;-68
2023/03/30 18:32:45;;;;;;;6.68;2.65;;;8.40;99.90;;;;;;4976939;28;20234;-66
2023/03/30 18:35:12;;;;;;;2.78;1.67;;;8.50;99.90;;;;;;4977138;28;20214;-66
2023/03/30 18:37:38;;;;;;;5.68;2.47;;;8.50;99.90;;;;;;4976844;28;20223;-67
2023/03/30 18:40:14;;;;;;;6.38;1.92;;;8.60;99.90;;;;;;4976279;28;20674;-67
2023/03/30 18:42:44;;;;;;;3.00;1.90;;;8.70;99.90;;;;;;4976807;28;20250;-66
2023/03/30 18:45:14;;;;;;;1.85;1.70;;;8.70;99.90;;;;;;4977168;28;20199;-67
2023/03/30 18:47:42;;;;;;;1.63;1.52;;;8.70;99.90;;;;;;4977093;28;20205;-67
2023/03/30 18:50:13;;;;;;;3.13;1.90;;;8.70;99.90;;;;;;4976629;28;20636;-66
2023/03/30 18:52:40;;;;;;;1.55;1.45;;;8.60;99.90;;;;;;4977076;28;20259;-67
2023/03/30 18:55:08;;;;;;;1.50;1.42;;;8.50;99.90;;;;;;4976673;28;20218;-66
2023/03/30 18:57:35;;;;;;;1.77;1.67;;;8.40;99.90;;;;;;4976287;28;20693;-68
2023/03/30 19:00:07;;;;;;;1.17;1.13;;;8.30;99.90;;;;;;4976844;28;20207;-66
2023/03/30 19:02:33;;;;;;;3.15;1.50;;;8.20;99.90;;;;;;4976592;28;20231;-66
2023/03/30 19:05:00;;;;;;;2.78;2.00;;;8.10;99.90;;;;;;4977016;28;20207;-66
2023/03/30 19:07:27;;;;;;;1.95;1.85;;;8.00;99.90;;;;;;4976443;28;20207;-66
2023/03/30 19:09:54;;;;;;;1.90;1.60;;;7.90;99.90;;;;;;4976424;28;20250;-68
2023/03/30 19:12:22;;;;;;;2.60;2.00;;;7.80;99.90;;;;;;4977340;28;20226;-65
2023/03/30 19:14:49;;;;;;;1.75;1.65;;;7.70;99.90;;;;;;4976482;28;20199;-65
2023/03/30 19:17:16;;;;;;;1.67;1.40;;;7.60;99.90;;;;;;4976619;28;20253;-66
2023/03/30 19:19:42;;;;;;;1.50;1.50;;;7.60;99.90;;;;;;4976383;28;20211;-65
2023/03/30 19:22:10;;;;;;;1.40;1.30;;;7.50;99.90;;;;;;4975933;28;20235;-66
2023/03/30 19:24:37;;;;;;;1.83;1.40;;;7.40;99.90;;;;;;4976348;28;20258;-66
2023/03/30 19:27:06;;;;;;;1.83;1.70;;;7.40;99.90;;;;;;4976458;28;20199;-67
2023/03/30 19:29:34;;;;;;;1.10;1.10;;;7.30;99.90;;;;;;4976260;28;20219;-66
2023/03/30 19:32:01;;;;;;;1.25;1.20;;;7.20;99.90;;;;;;4975659;28;20734;-66
2023/03/30 19:34:28;;;;;;;1.40;1.30;;;7.20;99.90;;;;;;4976296;28;20211;-66
2023/03/30 19:36:55;;;;;;;1.38;1.27;;;7.10;99.90;;;;;;4975929;28;20223;-66
2023/03/30 19:39:22;;;;;;;1.10;1.10;;;7.00;99.90;;;;;;4975856;28;20207;-66
2023/03/30 19:41:48;;;;;;;2.53;1.20;;;7.00;99.90;;;;;;4975950;28;20227;-65
2023/03/30 19:44:15;;;;;;;1.08;1.00;;;6.90;99.90;;;;;;4976009;28;20565;-66
2023/03/30 19:46:43;;;;;;;1.27;1.17;;;6.90;99.90;;;;;;4975822;28;20203;-66
2023/03/30 19:49:10;;;;;;;0.93;0.93;;;6.90;99.90;;;;;;4975523;28;20734;-66
2023/03/30 19:51:36;;;;;;;1.02;1.02;;;6.80;99.90;;;;;;4974991;28;20282;-66
2023/03/30 19:54:03;;;;;;;1.50;1.27;;;6.90;99.90;;;;;;4975808;28;20207;-66
2023/03/30 19:56:30;;;;;;;1.20;1.20;;;6.90;99.90;;;;;;4975606;28;20571;-66
2023/03/30 19:58:57;;;;;;;1.30;1.02;;;6.90;99.90;;;;;;4975384;28;20691;-65
2023/03/30 20:01:24;;;;;;;1.13;1.02;;;6.80;99.90;;;;;;4975601;28;20231;-66
2023/03/30 20:03:52;;;;;;;1.42;1.33;;;6.80;99.90;;;;;;4975538;28;20208;-66
2023/03/30 20:06:19;;;;;;;1.48;0.90;;;6.70;99.90;;;;;;4975436;28;20203;-67
2023/03/30 20:08:45;;;;;;;1.20;1.20;;;6.80;99.90;;;;;;4975068;28;20199;-66
2023/03/30 20:11:12;;;;;;;2.00;0.90;;;6.80;99.90;;;;;;4975210;28;20290;-66
2023/03/30 20:13:44;;;;;;;1.00;0.90;;;6.80;99.90;;;;;;4975541;28;20203;-67
2023/03/30 20:16:18;;;;;;;1.25;1.15;;;6.80;99.90;;;;;;4975459;28;20184;-64
2023/03/30 20:18:46;;;;;;;1.10;1.10;;;6.80;99.90;;;;;;4975451;28;20211;-68
2023/03/30 20:21:14;;;;;;;0.82;0.82;;;6.90;99.90;;;;;;4975001;28;20258;-66
2023/03/30 20:23:41;;;;;;;1.08;1.08;;;6.90;99.90;;;;;;4974799;28;20294;-65
2023/03/30 20:26:08;;;;;;;1.27;1.17;;;6.90;99.90;;;;;;4975031;28;20262;-65
2023/03/30 20:28:34;;;;;;;0.90;0.90;;;7.00;99.90;;;;;;4975245;28;20199;-67
2023/03/30 20:31:01;;;;;;;1.50;0.95;;;7.00;99.90;;;;;;4975039;28;20234;-66
2023/03/30 20:33:31;;;;;;;1.60;1.20;;;7.00;99.90;;;;;;4975079;28;20235;-66
2023/03/30 20:35:58;;;;;;;1.65;1.08;;;7.10;99.90;;;;;;4975113;28;20210;-65
2023/03/30 20:38:26;;;;;;;1.30;1.30;;;7.20;99.90;;;;;;4974817;28;20226;-65
2023/03/30 20:40:58;;;;;;;1.48;1.30;;;7.20;99.90;;;;;;4974759;28;20223;-65
2023/03/30 20:43:25;;;;;;;2.15;1.40;;;7.30;99.90;;;;;;4974781;28;20230;-65
2023/03/30 20:46:00;;;;;;;3.22;1.48;;;7.40;99.90;;;;;;4974813;28;20246;-65
2023/03/30 20:48:32;;;;;;;1.65;1.55;;;7.40;99.90;;;;;;4974864;28;20210;-65
2023/03/30 20:51:00;;;;;;;3.92;2.47;;;7.50;99.90;;;;;;4974609;28;20229;-66
2023/03/30 20:53:29;;;;;;;7.38;3.13;;;7.50;99.90;;;;;;4974721;28;20289;-66
2023/03/30 20:55:56;;;;;;;5.55;2.95;;;7.50;99.90;;;;;;4974758;28;20203;-66
2023/03/30 20:58:24;;;;;;;2.60;2.40;;;7.60;99.90;;;;;;4974986;28;20215;-66
2023/03/30 21:00:51;;;;;;;3.53;2.10;;;7.60;99.90;;;;;;4974925;28;20207;-66
2023/03/30 21:03:18;;;;;;;3.00;2.17;;;7.70;99.90;;;;;;4976664;28;20218;-66
2023/03/30 21:05:45;;;;;;;3.88;2.20;;;7.70;99.90;;;;;;4978536;28;20209;-66
2023/03/30 21:08:12;;;;;;;5.20;2.13;;;7.60;99.90;;;;;;4978415;28;20298;-66
2023/03/30 21:10:42;;;;;;;3.33;1.85;;;7.60;99.90;;;;;;4978244;28;20675;-66
2023/03/30 21:13:09;;;;;;;3.17;1.70;;;7.60;99.90;;;;;;4978573;28;20241;-65
2023/03/30 21:15:36;;;;;;;3.42;1.67;;;7.60;99.90;;;;;;4978454;28;20250;-66
2023/03/30 21:18:03;;;;;;;2.25;2.00;;;7.60;99.90;;;;;;4978182;28;20219;-66
2023/03/30 21:20:30;;;;;;;1.90;1.80;;;7.50;99.90;;;;;;4978311;28;20203;-65
2023/03/30 21:22:57;;;;;;;1.65;1.55;;;7.50;99.90;;;;;;4977994;28;20246;-65
2023/03/30 21:25:23;;;;;;;3.25;1.75;;;7.50;99.90;;;;;;4977940;28;20671;-66
2023/03/30 21:27:51;;;;;;;2.10;1.90;;;7.40;99.90;;;;;;4979016;28;20578;-66
2023/03/30 21:30:18;;;;;;;1.60;1.38;;;7.40;99.90;;;;;;4978652;28;20215;-67
2023/03/30 21:32:45;;;;;;;1.17;1.17;;;7.30;99.90;;;;;;4978486;28;20303;-67
2023/03/30 21:35:11;;;;;;;1.95;1.15;;;7.30;99.90;;;;;;4977834;28;20667;-66
2023/03/30 21:37:38;;;;;;;1.48;1.38;;;7.30;99.90;;;;;;4978186;28;20626;-66
2023/03/30 21:40:07;;;;;;;1.23;1.15;;;7.20;99.90;;;;;;4978032;28;20206;-66
2023/03/30 21:42:35;;;;;;;1.42;1.27;;;7.20;99.90;;;;;;4978078;28;20250;-66
